Time;durP1;ratioP1;P1;durP2;ratioP2;P2;SDS_P1;SDS_P2;PMS_P1;PMS_P2;Temp;Humidity;BMP_temperature;BMP_pressure;BME280_temperature;BME280_humidity;BME280_pressure;Samples;Min_cycle;Max_cycle;Signal;HPM_P1;HPM_P2
2023/01/07 00:01:12;;;;;;;12.10;11.00;;;;;;;5.80;100.00;96316.06;5089588;28;20032;-66
2023/01/07 00:03:38;;;;;;;12.55;11.30;;;;;;;5.83;100.00;96310.63;5088319;28;20032;-66
2023/01/07 00:06:09;;;;;;;11.63;10.63;;;;;;;5.83;100.00;96315.84;5088808;28;20090;-66
2023/01/07 00:08:37;;;;;;;12.25;10.90;;;;;;;5.81;100.00;96297.66;5087296;28;20016;-66
2023/01/07 00:11:05;;;;;;;11.10;10.10;;;;;;;5.80;100.00;96306.44;5088873;28;20050;-64
2023/01/07 00:13:30;;;;;;;12.77;11.48;;;;;;;5.93;100.00;96289.97;5084037;28;20534;-68
2023/01/07 00:15:58;;;;;;;13.35;11.98;;;;;;;5.90;100.00;96304.09;5086527;28;20056;-63
2023/01/07 00:18:23;;;;;;;12.57;10.35;;;;;;;5.83;100.00;96301.03;5083033;28;20025;-63
2023/01/07 00:20:48;;;;;;;11.48;10.27;;;;;;;5.93;100.00;96290.81;5087815;28;20043;-64
2023/01/07 00:23:15;;;;;;;12.25;9.48;;;;;;;5.85;100.00;96293.06;5086910;28;20081;-63
2023/01/07 00:25:40;;;;;;;15.55;11.52;;;;;;;5.74;100.00;96286.78;5089847;28;20855;-64
2023/01/07 00:28:05;;;;;;;13.98;12.10;;;;;;;5.74;100.00;96284.16;5073383;28;20028;-64
2023/01/07 00:30:31;;;;;;;14.60;11.70;;;;;;;5.71;100.00;96284.34;5085795;28;20486;-68
2023/01/07 00:33:03;;;;;;;15.32;10.85;;;;;;;5.71;100.00;96286.13;5085394;28;20120;-75
2023/01/07 00:35:35;;;;;;;12.18;10.25;;;;;;;5.70;100.00;96279.22;5085936;28;20040;-69
2023/01/07 00:38:02;;;;;;;13.93;10.18;;;;;;;5.68;100.00;96276.72;5083829;28;20028;-69
2023/01/07 00:40:29;;;;;;;10.25;9.25;;;;;;;5.70;100.00;96274.00;5085701;28;20115;-68
2023/01/07 00:43:00;;;;;;;9.85;8.85;;;;;;;5.69;100.00;96275.78;5086455;28;20039;-68
2023/01/07 00:45:29;;;;;;;11.75;10.65;;;;;;;5.72;100.00;96272.97;5084794;28;20078;-69
2023/01/07 00:47:57;;;;;;;12.13;10.93;;;;;;;5.73;100.00;96258.09;5081933;28;20020;-69
2023/01/07 00:50:26;;;;;;;15.55;12.68;;;;;;;5.72;100.00;96257.28;5087156;28;20471;-68
2023/01/07 00:52:52;;;;;;;22.05;15.77;;;;;;;5.71;100.00;96255.63;5085294;28;20051;-68
2023/01/07 00:55:17;;;;;;;28.35;16.27;;;;;;;5.68;100.00;96250.59;5087643;28;20063;-69
2023/01/07 00:57:43;;;;;;;22.75;15.77;;;;;;;5.68;100.00;96244.50;5085912;28;20408;-69
2023/01/07 01:00:11;;;;;;;25.20;14.27;;;;;;;5.65;100.00;96245.56;5084960;28;20024;-68
2023/01/07 01:02:37;;;;;;;16.70;12.93;;;;;;;5.64;100.00;96238.66;5086186;28;20086;-69
2023/01/07 01:05:03;;;;;;;18.92;13.85;;;;;;;5.64;100.00;96236.06;5068290;28;20513;-68
2023/01/07 01:07:29;;;;;;;13.32;10.98;;;;;;;5.68;100.00;96234.91;5088159;28;20040;-68
2023/01/07 01:09:54;;;;;;;10.70;9.57;;;;;;;5.69;100.00;96231.38;5088009;28;20035;-66
2023/01/07 01:12:19;;;;;;;10.13;9.23;;;;;;;5.69;100.00;96220.91;5086660;28;20055;-70
2023/01/07 01:14:45;;;;;;;10.07;9.05;;;;;;;5.74;100.00;96223.22;5086162;28;20064;-69
2023/01/07 01:17:10;;;;;;;9.27;8.40;;;;;;;5.73;100.00;96225.00;5080718;28;20045;-69
2023/01/07 01:19:35;;;;;;;9.07;8.27;;;;;;;5.76;100.00;96217.91;5085395;28;20042;-69
2023/01/07 01:22:01;;;;;;;9.82;8.82;;;;;;;5.73;100.00;96221.53;5088124;28;20035;-69
2023/01/07 01:24:26;;;;;;;9.40;8.43;;;;;;;5.66;100.00;96213.28;5084771;28;20067;-69
2023/01/07 01:26:52;;;;;;;9.43;8.52;;;;;;;5.65;100.00;96214.22;5084199;28;20401;-69
2023/01/07 01:29:17;;;;;;;9.10;8.30;;;;;;;5.62;100.00;96209.16;5086362;28;20024;-76
2023/01/07 01:31:42;;;;;;;9.13;8.27;;;;;;;5.59;100.00;96217.19;5086443;28;20024;-69
2023/01/07 01:34:08;;;;;;;9.55;8.65;;;;;;;5.56;100.00;96210.41;5085634;28;20068;-69
2023/01/07 01:36:33;;;;;;;15.23;12.30;;;;;;;5.54;100.00;96206.22;5085357;28;20028;-68
2023/01/07 01:38:58;;;;;;;17.10;13.43;;;;;;;5.49;100.00;96203.88;5078581;28;20039;-68
2023/01/07 01:41:24;;;;;;;9.85;8.95;;;;;;;5.50;100.00;96200.34;5085638;28;20032;-68
2023/01/07 01:43:50;;;;;;;8.68;7.97;;;;;;;5.56;99.52;96214.78;5080195;28;20108;-69
2023/01/07 01:46:30;;;;;;;10.23;8.75;;;;;;;5.56;99.63;96209.56;5082512;28;20028;-68
2023/01/07 01:49:04;;;;;;;8.40;7.70;;;;;;;5.56;99.32;96210.41;5082950;28;20024;-70
2023/01/07 01:51:33;;;;;;;10.05;9.05;;;;;;;5.48;99.53;96206.63;5076372;28;20036;-65
2023/01/07 01:54:02;;;;;;;18.33;15.43;;;;;;;5.42;99.35;96205.22;5080042;28;20036;-64
2023/01/07 01:56:34;;;;;;;12.10;10.73;;;;;;;5.36;99.44;96197.78;5085326;28;20039;-65
2023/01/07 01:59:04;;;;;;;14.65;12.40;;;;;;;5.32;99.53;96197.13;5085029;28;20044;-65
2023/01/07 02:01:32;;;;;;;11.45;9.95;;;;;;;5.21;99.68;96200.41;5084049;28;20525;-65
2023/01/07 02:03:59;;;;;;;11.45;9.90;;;;;;;5.15;99.98;96206.84;5080058;28;20111;-65
2023/01/07 02:06:30;;;;;;;13.25;10.30;;;;;;;5.08;100.00;96204.72;5071560;28;20044;-69
2023/01/07 02:08:57;;;;;;;10.10;9.07;;;;;;;4.99;100.00;96200.94;5083226;28;20044;-69
2023/01/07 02:11:34;;;;;;;8.98;8.18;;;;;;;4.96;100.00;96196.72;5085473;28;20534;-69
2023/01/07 02:14:19;;;;;;;9.63;8.85;;;;;;;4.88;100.00;96204.19;5083422;28;20409;-70
2023/01/07 02:16:58;;;;;;;8.93;8.23;;;;;;;4.81;100.00;96193.28;5084423;28;20080;-69
2023/01/07 02:19:42;;;;;;;12.95;11.63;;;;;;;4.73;100.00;96201.59;5084532;28;20652;-69
2023/01/07 02:22:15;;;;;;;11.07;10.05;;;;;;;4.69;100.00;96194.03;5075595;28;20043;-70
2023/01/07 02:25:14;;;;;;;11.50;10.48;;;;;;;4.59;100.00;96202.44;5084249;28;20525;-69
2023/01/07 02:28:13;;;;;;;9.02;8.32;;;;;;;4.55;100.00;96193.13;5078139;28;20036;-66
2023/01/07 02:31:06;;;;;;;8.05;7.35;;;;;;;4.48;100.00;96190.97;5082423;28;20126;-69
2023/01/07 02:33:57;;;;;;;9.30;8.38;;;;;;;4.40;100.00;96179.19;5083969;28;20085;-69
2023/01/07 02:36:55;;;;;;;8.98;8.15;;;;;;;4.39;100.00;96171.50;5076484;28;20046;-69
2023/01/07 02:39:34;;;;;;;8.80;8.07;;;;;;;4.30;100.00;96168.50;5079612;28;20037;-68
2023/01/07 02:42:12;;;;;;;8.48;7.78;;;;;;;4.20;100.00;96175.19;5080649;28;20090;-69
2023/01/07 02:44:44;;;;;;;8.65;7.85;;;;;;;4.15;100.00;96167.63;5087031;28;20082;-68
2023/01/07 02:47:35;;;;;;;8.38;7.53;;;;;;;4.08;100.00;96162.88;5079667;28;20111;-74
2023/01/07 02:50:00;;;;;;;9.18;7.93;;;;;;;4.01;100.00;96165.03;5085546;28;20504;-68
2023/01/07 02:52:30;;;;;;;9.25;8.30;;;;;;;3.90;100.00;96155.22;5081202;28;20040;-68
2023/01/07 02:55:11;;;;;;;8.05;7.45;;;;;;;3.82;100.00;96154.81;5084031;28;20036;-68
2023/01/07 02:58:10;;;;;;;8.43;7.72;;;;;;;3.68;100.00;96151.25;5088651;28;20028;-68
2023/01/07 03:00:38;;;;;;;7.65;7.05;;;;;;;3.57;100.00;96153.63;5088270;28;20044;-68
2023/01/07 03:03:36;;;;;;;8.85;8.15;;;;;;;3.50;100.00;96157.50;5086849;28;20068;-68
2023/01/07 03:06:25;;;;;;;8.45;7.72;;;;;;;3.41;100.00;96138.88;5082777;28;20039;-73
2023/01/07 03:08:50;;;;;;;8.07;7.40;;;;;;;3.34;100.00;96142.75;5087225;28;20427;-68
2023/01/07 03:11:18;;;;;;;8.48;7.78;;;;;;;3.31;100.00;96142.91;5090413;28;20028;-68
2023/01/07 03:14:05;;;;;;;7.85;7.25;;;;;;;3.22;100.00;96138.25;5080591;28;20110;-67
2023/01/07 03:16:36;;;;;;;9.23;8.43;;;;;;;3.18;100.00;96136.72;5079761;28;20116;-68
2023/01/07 03:19:08;;;;;;;8.30;7.55;;;;;;;3.11;100.00;96137.06;5087849;28;20516;-68
2023/01/07 03:21:35;;;;;;;7.53;6.95;;;;;;;3.05;100.00;96141.75;5084757;28;20036;-68
2023/01/07 03:24:01;;;;;;;8.90;8.00;;;;;;;3.04;100.00;96146.13;5083954;28;20032;-64
2023/01/07 03:26:33;;;;;;;10.02;7.78;;;;;;;3.02;100.00;96142.78;5066130;28;20046;-66
2023/01/07 03:29:01;;;;;;;11.07;7.35;;;;;;;2.98;100.00;96142.09;5082130;28;20028;-69
2023/01/07 03:31:29;;;;;;;8.25;7.55;;;;;;;2.91;100.00;96140.78;5086566;28;20570;-69
2023/01/07 03:34:08;;;;;;;12.25;8.00;;;;;;;2.85;100.00;96134.13;5086598;28;20036;-69
2023/01/07 03:36:44;;;;;;;8.35;7.68;;;;;;;2.77;100.00;96127.66;5085775;28;20032;-68
2023/01/07 03:39:11;;;;;;;9.98;9.07;;;;;;;2.72;100.00;96120.09;5086183;28;20032;-68
2023/01/07 03:44:23;;;;;;;8.60;7.30;;;;;;;2.68;100.00;96106.44;5086618;28;20116;-68
2023/01/07 03:46:50;;;;;;;7.63;6.93;;;;;;;2.66;100.00;96105.69;5088355;28;20115;-68
2023/01/07 03:49:16;;;;;;;8.25;7.47;;;;;;;2.67;100.00;96098.72;5088013;28;20024;-68
2023/01/07 03:51:41;;;;;;;7.63;6.93;;;;;;;2.68;100.00;96103.00;5087111;28;20551;-68
2023/01/07 03:54:06;;;;;;;7.90;7.30;;;;;;;2.69;100.00;96095.13;5088415;28;20063;-68
2023/01/07 03:56:32;;;;;;;8.45;7.75;;;;;;;2.67;100.00;96096.97;5082202;28;20032;-67
2023/01/07 03:58:57;;;;;;;8.02;7.40;;;;;;;2.59;100.00;96101.72;5086612;28;20083;-68
2023/01/07 04:01:23;;;;;;;7.43;6.82;;;;;;;2.52;100.00;96096.03;5085940;28;20032;-68
2023/01/07 04:03:48;;;;;;;8.57;7.88;;;;;;;2.46;100.00;96104.16;5086622;28;20040;-68
2023/01/07 04:06:13;;;;;;;7.53;6.90;;;;;;;2.45;100.00;96096.47;5088566;28;20081;-64
2023/01/07 04:08:39;;;;;;;8.23;7.53;;;;;;;2.41;100.00;96096.59;5089048;28;20031;-64
2023/01/07 04:11:04;;;;;;;7.85;7.25;;;;;;;2.37;100.00;96100.28;5089028;28;20032;-64
2023/01/07 04:13:29;;;;;;;8.38;7.68;;;;;;;2.29;100.00;96103.28;5089501;28;20039;-65
2023/01/07 04:15:55;;;;;;;8.40;7.78;;;;;;;2.28;100.00;96091.22;5089054;28;20547;-65
2023/01/07 04:18:20;;;;;;;8.77;8.07;;;;;;;2.30;100.00;96093.75;5089484;28;20511;-65
2023/01/07 04:20:46;;;;;;;9.80;8.65;;;;;;;2.20;100.00;96090.78;5089555;28;20466;-65
2023/01/07 04:23:13;;;;;;;9.38;8.63;;;;;;;2.18;100.00;96090.03;5089551;28;20551;-66
2023/01/07 04:25:39;;;;;;;9.85;8.75;;;;;;;2.15;100.00;96090.19;5089280;28;20037;-74
2023/01/07 04:28:04;;;;;;;8.75;7.88;;;;;;;2.08;100.00;96084.47;5089901;28;20043;-75
2023/01/07 04:30:30;;;;;;;7.65;7.05;;;;;;;2.04;100.00;96082.97;5089525;28;20039;-74
2023/01/07 04:32:55;;;;;;;9.15;8.35;;;;;;;2.01;100.00;96083.13;5085340;28;20047;-75
2023/01/07 04:35:20;;;;;;;8.38;7.75;;;;;;;1.96;100.00;96075.56;5082146;28;20055;-75
2023/01/07 04:37:45;;;;;;;9.13;8.32;;;;;;;1.93;100.00;96074.88;5086415;28;20040;-75
2023/01/07 04:40:11;;;;;;;8.82;8.02;;;;;;;1.91;100.00;96067.19;5087841;28;20033;-67
2023/01/07 04:42:36;;;;;;;9.15;8.32;;;;;;;1.88;100.00;96077.72;5088845;28;20115;-69
2023/01/07 04:45:02;;;;;;;8.85;8.15;;;;;;;1.79;100.00;96073.00;5083460;28;20068;-68
2023/01/07 04:47:27;;;;;;;11.23;8.35;;;;;;;1.75;100.00;96069.69;5080079;28;20061;-68
2023/01/07 04:49:53;;;;;;;10.10;9.20;;;;;;;1.73;100.00;96076.72;5065780;28;20039;-68
2023/01/07 04:52:18;;;;;;;10.73;9.82;;;;;;;1.68;100.00;96074.38;5085943;28;20040;-68
2023/01/07 04:54:43;;;;;;;13.85;12.38;;;;;;;1.61;100.00;96073.00;5085182;28;20067;-68
2023/01/07 04:57:08;;;;;;;18.42;16.63;;;;;;;1.59;100.00;96072.25;5081966;28;20031;-68
2023/01/07 04:59:34;;;;;;;14.07;12.98;;;;;;;1.60;100.00;96073.91;5081083;28;20027;-65
2023/01/07 05:01:59;;;;;;;13.60;12.50;;;;;;;1.58;100.00;96073.16;5082917;28;20036;-65
2023/01/07 05:04:24;;;;;;;11.18;10.23;;;;;;;1.51;100.00;96074.41;5086692;28;20352;-69
2023/01/07 05:06:50;;;;;;;10.88;10.07;;;;;;;1.47;100.00;96072.88;5082961;28;20036;-68
2023/01/07 05:09:15;;;;;;;8.75;8.05;;;;;;;1.45;100.00;96070.34;5080459;28;20036;-69
2023/01/07 05:11:40;;;;;;;7.18;6.65;;;;;;;1.44;100.00;96073.84;5086056;28;20038;-69
2023/01/07 05:14:06;;;;;;;7.25;6.65;;;;;;;1.39;100.00;96071.47;5086665;28;20036;-69
2023/01/07 05:16:32;;;;;;;6.30;5.80;;;;;;;1.34;100.00;96075.25;5080553;28;20125;-69
2023/01/07 05:18:57;;;;;;;6.35;5.78;;;;;;;1.32;100.00;96064.94;5084561;28;20032;-74
2023/01/07 05:21:22;;;;;;;8.60;5.28;;;;;;;1.36;100.00;96071.63;5085705;28;20062;-63
2023/01/07 05:23:48;;;;;;;21.88;19.70;;;;;;;1.39;100.00;96071.47;5084142;28;20035;-63
2023/01/07 05:26:13;;;;;;;16.48;13.30;;;;;;;1.37;100.00;96075.91;5074963;28;20043;-63
2023/01/07 05:28:38;;;;;;;14.57;13.27;;;;;;;1.35;100.00;96075.16;5083614;28;20039;-63
2023/01/07 05:31:04;;;;;;;14.35;13.05;;;;;;;1.30;100.00;96079.72;5083643;28;20028;-63
2023/01/07 05:33:29;;;;;;;11.30;10.20;;;;;;;1.27;100.00;96085.06;5085910;28;20028;-63
2023/01/07 05:35:54;;;;;;;9.30;8.50;;;;;;;1.27;100.00;96088.50;5084209;28;20042;-64
2023/01/07 05:38:20;;;;;;;8.40;7.60;;;;;;;1.26;100.00;96086.00;5085093;28;20115;-68
2023/01/07 05:40:48;;;;;;;7.55;6.88;;;;;;;1.31;100.00;96089.19;5084668;28;20040;-68
2023/01/07 05:43:14;;;;;;;10.35;9.23;;;;;;;1.31;100.00;96084.00;5083545;28;20020;-74
2023/01/07 05:45:43;;;;;;;9.10;7.30;;;;;;;1.35;100.00;96092.47;5086429;28;20043;-75
2023/01/07 05:48:08;;;;;;;8.07;7.18;;;;;;;1.31;100.00;96089.19;5082443;28;20032;-74
2023/01/07 05:50:33;;;;;;;8.38;7.57;;;;;;;1.27;100.00;96087.66;5078105;28;20050;-74
2023/01/07 05:52:58;;;;;;;7.88;7.15;;;;;;;1.25;100.00;96079.13;5058903;28;20032;-75
2023/01/07 05:55:24;;;;;;;9.55;8.52;;;;;;;1.17;100.00;96074.31;5079619;28;20111;-75
2023/01/07 05:57:49;;;;;;;5.95;5.45;;;;;;;1.14;100.00;96067.50;5080476;28;20111;-64
2023/01/07 06:00:15;;;;;;;86.78;48.85;;;;;;;1.18;100.00;96067.34;5083295;28;20293;-64
2023/01/07 06:02:40;;;;;;;46.40;27.83;;;;;;;1.19;100.00;96069.03;5085259;28;20058;-69
2023/01/07 06:05:06;;;;;;;29.70;19.27;;;;;;;1.16;100.00;96072.63;5077678;28;20126;-67
2023/01/07 06:07:32;;;;;;;11.38;9.00;;;;;;;1.05;100.00;96067.09;5073953;28;20094;-68
2023/01/07 06:09:58;;;;;;;7.30;5.90;;;;;;;0.94;100.00;96065.03;5085354;28;20470;-68
2023/01/07 06:12:23;;;;;;;6.10;5.60;;;;;;;0.97;100.00;96070.06;5082606;28;20467;-68
2023/01/07 06:14:48;;;;;;;10.32;7.55;;;;;;;1.03;100.00;96071.53;5082292;28;20494;-68
2023/01/07 06:17:14;;;;;;;8.18;7.05;;;;;;;0.98;100.00;96074.34;5085713;28;20379;-64
2023/01/07 06:19:39;;;;;;;8.50;7.50;;;;;;;0.92;100.00;96072.91;5087637;28;20032;-65
2023/01/07 06:22:05;;;;;;;9.88;7.78;;;;;;;0.92;100.00;96072.03;5087824;28;20107;-63
2023/01/07 06:24:30;;;;;;;9.43;8.40;;;;;;;0.91;100.00;96075.56;5085464;28;20043;-63
2023/01/07 06:26:56;;;;;;;10.15;8.88;;;;;;;0.79;100.00;96076.97;5087476;28;20084;-63
2023/01/07 06:29:21;;;;;;;10.98;8.60;;;;;;;0.75;100.00;96070.25;5083312;28;20031;-63
2023/01/07 06:31:46;;;;;;;9.27;8.45;;;;;;;0.73;100.00;96066.91;5074012;28;20043;-63
2023/01/07 06:34:12;;;;;;;8.35;7.65;;;;;;;0.74;100.00;96064.22;5084296;28;20482;-63
2023/01/07 06:36:37;;;;;;;8.65;7.80;;;;;;;0.77;100.00;96077.03;5089256;28;20036;-64
2023/01/07 06:39:03;;;;;;;7.88;7.07;;;;;;;0.75;100.00;96065.91;5089583;28;20025;-68
2023/01/07 06:41:28;;;;;;;9.32;7.97;;;;;;;0.71;100.00;96070.41;5087044;28;20028;-68
2023/01/07 06:43:53;;;;;;;11.73;10.63;;;;;;;0.65;100.00;96069.84;5085569;28;20450;-68
2023/01/07 06:46:19;;;;;;;9.68;8.77;;;;;;;0.64;100.00;96065.59;5085381;28;20034;-69
2023/01/07 06:48:44;;;;;;;10.73;9.70;;;;;;;0.66;100.00;96072.38;5087592;28;20024;-68
2023/01/07 06:51:09;;;;;;;38.33;34.60;;;;;;;0.61;100.00;96069.16;5085550;28;20035;-68
2023/01/07 06:53:35;;;;;;;33.13;29.30;;;;;;;0.53;100.00;96066.91;5083396;28;20143;-68
2023/01/07 06:56:00;;;;;;;23.25;21.17;;;;;;;0.54;100.00;96073.75;5090933;28;20040;-66
2023/01/07 06:58:25;;;;;;;18.33;16.23;;;;;;;0.56;100.00;96071.97;5088721;28;20119;-65
2023/01/07 07:00:51;;;;;;;23.98;19.30;;;;;;;0.56;100.00;96069.38;5088739;28;20531;-69
2023/01/07 07:03:16;;;;;;;34.53;25.77;;;;;;;0.61;100.00;96068.31;5088515;28;20071;-69
2023/01/07 07:05:41;;;;;;;33.00;25.45;;;;;;;0.60;100.00;96058.88;5086733;28;20052;-68
2023/01/07 07:08:07;;;;;;;14.80;13.43;;;;;;;0.70;100.00;96055.78;5089822;28;20024;-68
2023/01/07 07:10:32;;;;;;;13.18;9.98;;;;;;;0.71;100.00;96059.19;5090636;28;20032;-68
2023/01/07 07:12:58;;;;;;;13.63;12.18;;;;;;;0.64;100.00;96056.03;5090429;28;20035;-68
2023/01/07 07:15:23;;;;;;;12.90;11.52;;;;;;;0.66;100.00;96058.56;5085323;28;20111;-74
2023/01/07 07:17:48;;;;;;;12.00;10.25;;;;;;;0.71;100.00;96062.63;5090733;28;20413;-66
2023/01/07 07:20:14;;;;;;;16.25;14.05;;;;;;;0.71;100.00;96054.00;5085983;28;20048;-68
2023/01/07 07:22:46;;;;;;;15.55;14.02;;;;;;;0.68;100.00;96060.19;5082685;28;20025;-69
2023/01/07 07:25:12;;;;;;;16.52;14.70;;;;;;;0.65;100.00;96059.47;5083845;28;20030;-69
2023/01/07 07:27:37;;;;;;;14.63;13.32;;;;;;;0.62;100.00;96046.69;5063386;28;20036;-69
2023/01/07 07:30:03;;;;;;;11.95;10.85;;;;;;;0.61;100.00;96063.13;5087598;28;20059;-69
2023/01/07 07:32:28;;;;;;;12.68;11.43;;;;;;;0.63;100.00;96063.91;5087666;28;20090;-69
2023/01/07 07:34:55;;;;;;;21.13;17.10;;;;;;;0.66;100.00;96071.53;5087803;28;20519;-69
2023/01/07 07:37:20;;;;;;;19.67;17.60;;;;;;;0.70;100.00;96065.28;5088837;28;20064;-74
2023/01/07 07:39:45;;;;;;;18.30;15.05;;;;;;;0.75;100.00;96060.72;5090928;28;20077;-74
2023/01/07 07:42:11;;;;;;;19.60;17.50;;;;;;;0.74;100.00;96063.41;5085058;28;20558;-74
2023/01/07 07:44:36;;;;;;;15.70;14.20;;;;;;;0.70;100.00;96067.88;5088869;28;20040;-74
2023/01/07 07:47:02;;;;;;;16.27;12.50;;;;;;;0.67;100.00;96066.28;5088178;28;20370;-75
2023/01/07 07:49:28;;;;;;;17.05;13.32;;;;;;;0.74;100.00;96066.81;5088480;28;20070;-74
2023/01/07 07:51:53;;;;;;;14.98;13.48;;;;;;;0.74;100.00;96061.63;5083852;28;20137;-75
2023/01/07 07:54:19;;;;;;;18.30;14.65;;;;;;;0.73;100.00;96064.31;5088910;28;20114;-68
2023/01/07 07:56:44;;;;;;;18.23;14.43;;;;;;;0.77;100.00;96066.66;5090513;28;20107;-63
2023/01/07 07:59:10;;;;;;;17.63;15.25;;;;;;;0.78;100.00;96073.56;5084969;28;20043;-63
2023/01/07 08:01:35;;;;;;;16.50;13.73;;;;;;;0.92;100.00;96075.50;5087268;28;20047;-63
2023/01/07 08:04:00;;;;;;;17.33;12.25;;;;;;;0.88;100.00;96075.69;5080547;28;20559;-62
2023/01/07 08:06:26;;;;;;;33.80;21.55;;;;;;;0.92;100.00;96072.91;5087707;28;20052;-61
2023/01/07 08:08:51;;;;;;;21.95;15.20;;;;;;;0.88;100.00;96075.69;5085579;28;20028;-62
2023/01/07 08:11:17;;;;;;;15.60;13.30;;;;;;;0.82;100.00;96067.31;5088245;28;20462;-61
2023/01/07 08:13:42;;;;;;;11.70;10.50;;;;;;;0.88;100.00;96066.16;5086275;28;20052;-68
2023/01/07 08:16:07;;;;;;;14.88;9.57;;;;;;;0.88;100.00;96067.94;5085914;28;20406;-64
2023/01/07 08:18:33;;;;;;;10.80;8.73;;;;;;;0.89;100.00;96074.78;5084208;28;20030;-62
2023/01/07 08:20:58;;;;;;;20.13;14.27;;;;;;;0.90;100.00;96077.31;5086064;28;20156;-63
2023/01/07 08:23:26;;;;;;;24.10;21.42;;;;;;;0.98;100.00;96063.97;5084997;28;20040;-63
2023/01/07 08:25:52;;;;;;;19.70;17.65;;;;;;;0.98;100.00;96069.16;5082585;28;20130;-61
2023/01/07 08:28:17;;;;;;;14.75;12.00;;;;;;;0.95;100.00;96067.56;5075127;28;20036;-62
2023/01/07 08:30:42;;;;;;;15.57;12.10;;;;;;;0.95;100.00;96069.31;5077437;28;20040;-63
2023/01/07 08:33:08;;;;;;;13.63;10.80;;;;;;;0.99;100.00;96076.00;5075005;28;20040;-69
2023/01/07 08:35:34;;;;;;;19.55;16.50;;;;;;;0.98;100.00;96076.94;5071486;28;20438;-68
2023/01/07 08:38:07;;;;;;;16.40;13.68;;;;;;;0.96;100.00;96065.78;5075604;28;20097;-68
2023/01/07 08:40:33;;;;;;;17.02;13.23;;;;;;;0.91;100.00;96060.84;5080935;28;20425;-68
2023/01/07 08:43:00;;;;;;;13.80;12.32;;;;;;;0.99;100.00;96063.91;5075918;28;20098;-73
2023/01/07 08:45:26;;;;;;;12.82;11.52;;;;;;;1.03;100.00;96062.00;5082030;28;20043;-72
2023/01/07 08:47:51;;;;;;;14.00;12.32;;;;;;;1.07;100.00;96060.94;5081785;28;20044;-71
2023/01/07 08:50:18;;;;;;;16.90;15.30;;;;;;;1.02;100.00;96068.13;5082437;28;20755;-71
2023/01/07 08:52:45;;;;;;;14.43;13.00;;;;;;;1.04;100.00;96061.09;5081642;28;20032;-65
2023/01/07 08:55:11;;;;;;;12.38;11.27;;;;;;;1.09;100.00;96056.53;5079428;28;20063;-70
2023/01/07 08:57:36;;;;;;;13.05;11.85;;;;;;;1.17;100.00;96063.06;5081605;28;20056;-70
2023/01/07 09:00:02;;;;;;;13.27;11.57;;;;;;;1.10;100.00;96062.53;5081087;28;20036;-68
2023/01/07 09:02:27;;;;;;;12.85;11.48;;;;;;;1.21;100.00;96062.00;5088272;28;20032;-71
2023/01/07 09:04:52;;;;;;;17.25;15.40;;;;;;;1.15;100.00;96060.56;5081340;28;20072;-71
2023/01/07 09:07:17;;;;;;;19.65;13.82;;;;;;;1.12;100.00;96047.75;5077757;28;20509;-69
2023/01/07 09:09:43;;;;;;;18.83;14.25;;;;;;;1.21;100.00;96052.47;5081995;28;20409;-64
2023/01/07 09:12:08;;;;;;;19.42;17.33;;;;;;;1.22;100.00;96050.75;5087686;28;20405;-67
2023/01/07 09:14:34;;;;;;;49.80;38.00;;;;;;;1.20;100.00;96050.81;5079812;28;20059;-68
2023/01/07 09:16:59;;;;;;;36.90;31.63;;;;;;;1.23;100.00;96047.22;5086089;28;20059;-70
2023/01/07 09:19:24;;;;;;;45.60;38.20;;;;;;;1.25;100.00;96056.59;5081469;28;20093;-70
2023/01/07 09:21:53;;;;;;;56.42;46.47;;;;;;;1.26;100.00;96050.50;5068608;28;20185;-71
2023/01/07 09:24:18;;;;;;;34.35;27.48;;;;;;;1.25;100.00;96053.19;5069128;28;20409;-71
2023/01/07 09:26:44;;;;;;;25.88;21.95;;;;;;;1.26;100.00;96045.31;5081574;28;20419;-70
2023/01/07 09:29:09;;;;;;;26.05;23.33;;;;;;;1.41;100.00;96059.28;5083961;28;20603;-71
2023/01/07 09:31:35;;;;;;;25.42;22.75;;;;;;;1.47;100.00;96052.13;5074477;28;20036;-68
2023/01/07 09:34:00;;;;;;;20.75;17.83;;;;;;;1.41;100.00;96059.28;5077996;28;20043;-69
2023/01/07 09:36:26;;;;;;;16.33;14.82;;;;;;;1.56;100.00;96055.09;5076066;28;20047;-67
2023/01/07 09:38:53;;;;;;;17.60;13.02;;;;;;;1.88;100.00;96058.69;5084033;28;20614;-70
2023/01/07 09:41:31;;;;;;;13.48;12.15;;;;;;;2.46;100.00;96059.16;5066251;28;20508;-71
2023/01/07 09:44:16;;;;;;;16.38;14.88;;;;;;;2.90;100.00;96060.22;5084745;28;20432;-70
2023/01/07 09:46:43;;;;;;;16.85;15.20;;;;;;;3.30;100.00;96053.56;5076671;28;20035;-71
2023/01/07 09:49:17;;;;;;;15.40;13.90;;;;;;;3.73;100.00;96057.22;5081404;28;20036;-70
2023/01/07 09:51:49;;;;;;;13.05;10.98;;;;;;;4.03;100.00;96058.09;5073803;28;20029;-66
2023/01/07 09:54:29;;;;;;;10.75;9.82;;;;;;;4.41;100.00;96044.47;5077009;28;20035;-66
2023/01/07 09:56:54;;;;;;;33.40;25.92;;;;;;;4.54;100.00;96055.00;5080676;28;20528;-66
2023/01/07 09:59:20;;;;;;;19.27;16.50;;;;;;;4.57;100.00;96053.03;5080282;28;20028;-68
2023/01/07 10:02:09;;;;;;;13.18;11.30;;;;;;;4.66;100.00;96054.22;5073979;28;20031;-67
2023/01/07 10:04:48;;;;;;;10.40;8.68;;;;;;;4.97;100.00;96048.81;5072056;28;20039;-66
2023/01/07 10:07:44;;;;;;;9.65;8.55;;;;;;;5.19;100.00;96047.41;5078420;28;20028;-66
2023/01/07 10:10:36;;;;;;;8.93;8.13;;;;;;;5.52;100.00;96049.59;5077579;28;20032;-71
2023/01/07 10:13:47;;;;;;;8.25;7.53;;;;;;;5.76;99.67;96043.69;5081830;28;20044;-64
2023/01/07 10:16:26;;;;;;;8.85;7.95;;;;;;;6.09;96.84;96034.50;5061827;28;20040;-65
2023/01/07 10:19:00;;;;;;;10.45;7.55;;;;;;;6.32;95.41;96044.34;5082082;28;20056;-64
2023/01/07 10:22:00;;;;;;;15.20;11.88;;;;;;;6.54;93.41;96044.50;5082838;28;20043;-66
2023/01/07 10:24:41;;;;;;;7.38;6.68;;;;;;;6.58;91.40;96032.88;5069163;28;20572;-64
2023/01/07 10:27:12;;;;;;;7.43;6.72;;;;;;;6.73;93.27;96025.69;5085003;28;20040;-68
2023/01/07 10:29:47;;;;;;;7.10;6.28;;;;;;;6.87;92.56;96021.25;5085631;28;20035;-66
2023/01/07 10:32:17;;;;;;;;;;;;;;;6.85;91.40;96013.50;5085483;28;20169;-66
2023/01/07 10:34:48;;;;;;;7.15;5.07;;;;;;;6.91;91.13;96016.63;5085716;28;19916;-65
2023/01/07 10:37:25;;;;;;;5.68;5.28;;;;;;;6.99;91.13;96003.84;5083891;28;20024;-67
2023/01/07 10:40:19;;;;;;;5.70;5.30;;;;;;;7.11;89.32;96002.91;5089719;28;20028;-65
2023/01/07 10:43:10;;;;;;;5.57;5.07;;;;;;;7.33;88.25;95993.47;5088758;28;20032;-65
2023/01/07 10:45:47;;;;;;;4.97;4.57;;;;;;;7.16;86.09;95994.72;5088583;28;20108;-65
2023/01/07 10:48:36;;;;;;;5.22;4.72;;;;;;;7.25;88.25;95986.19;5087249;28;20111;-73
2023/01/07 10:51:17;;;;;;;5.10;4.60;;;;;;;7.34;86.68;95974.19;5094699;28;20028;-62
2023/01/07 10:53:54;;;;;;;6.28;4.72;;;;;;;7.70;85.84;95968.91;5090564;28;20081;-62
2023/01/07 10:56:27;;;;;;;5.45;4.35;;;;;;;7.87;84.88;95972.88;5094262;28;20098;-62
2023/01/07 10:58:53;;;;;;;4.70;4.20;;;;;;;8.06;83.38;95964.41;5093802;28;20066;-62
2023/01/07 11:01:30;;;;;;;4.60;4.20;;;;;;;8.28;80.89;95953.03;5087270;28;20104;-62
2023/01/07 11:03:58;;;;;;;3.80;3.50;;;;;;;8.50;79.96;95951.38;5092003;28;20044;-62
2023/01/07 11:06:46;;;;;;;6.53;5.57;;;;;;;8.62;78.44;95943.47;5072974;28;20037;-68
2023/01/07 11:09:16;;;;;;;21.80;14.50;;;;;;;8.78;79.34;95937.81;5091004;28;20663;-63
2023/01/07 11:11:43;;;;;;;13.35;10.77;;;;;;;8.78;77.58;95938.66;5086469;28;20032;-72
2023/01/07 11:14:19;;;;;;;9.23;6.53;;;;;;;8.81;77.98;95933.16;5086169;28;20031;-73
2023/01/07 11:16:48;;;;;;;;;;;;;;;8.96;76.56;95925.81;5086440;28;20063;-74
2023/01/07 11:19:13;;;;;;;4.35;3.70;;;;;;;8.93;77.19;95914.72;5086481;28;19920;-73
2023/01/07 11:21:43;;;;;;;3.45;3.15;;;;;;;8.96;75.90;95909.25;5082426;28;20042;-71
2023/01/07 11:24:17;;;;;;;3.08;2.88;;;;;;;8.76;74.41;95921.34;5081674;28;20032;-71
2023/01/07 11:26:44;;;;;;;3.13;2.83;;;;;;;8.70;72.44;95917.44;5085226;28;20036;-60
2023/01/07 11:29:12;;;;;;;4.05;2.83;;;;;;;8.83;76.69;95912.84;5083365;28;20039;-62
2023/01/07 11:32:01;;;;;;;2.55;2.45;;;;;;;8.98;76.71;95908.13;5086015;28;20024;-61
2023/01/07 11:35:05;;;;;;;2.95;2.65;;;;;;;8.98;74.90;95905.50;5079551;28;20052;-61
2023/01/07 11:37:39;;;;;;;3.67;3.30;;;;;;;9.02;75.28;95883.28;5086198;28;20513;-61
2023/01/07 11:40:16;;;;;;;3.85;2.92;;;;;;;9.03;74.23;95884.13;5086335;28;20501;-61